sensor_id;sensor_type;location;lat;lon;timestamp;pressure;altitude;pressure_sealevel;temperature;humidity
29935;BME280;19905;53.370;-6.314;2023-05-22T00:01:28;102115.03;;;14.04;100.00
29935;BME280;19905;53.370;-6.314;2023-05-22T00:03:58;102109.59;;;14.05;100.00
29935;BME280;19905;53.370;-6.314;2023-05-22T00:06:28;102113.03;;;14.07;100.00
29935;BME280;19905;53.370;-6.314;2023-05-22T00:08:57;102099.50;;;14.10;100.00
29935;BME280;19905;53.370;-6.314;2023-05-22T00:11:26;102106.44;;;14.13;100.00
29935;BME280;19905;53.370;-6.314;2023-05-22T00:13:54;102113.44;;;14.14;100.00
29935;BME280;19905;53.370;-6.314;2023-05-22T00:16:24;102108.56;;;14.08;100.00
29935;BME280;19905;53.370;-6.314;2023-05-22T00:18:53;102105.59;;;14.12;100.00
29935;BME280;19905;53.370;-6.314;2023-05-22T00:21:23;102112.47;;;14.15;100.00
29935;BME280;19905;53.370;-6.314;2023-05-22T00:23:53;102107.16;;;14.15;100.00
29935;BME280;19905;53.370;-6.314;2023-05-22T00:26:22;102103.44;;;14.05;100.00
29935;BME280;19905;53.370;-6.314;2023-05-22T00:28:51;102108.56;;;14.08;100.00
29935;BME280;19905;53.370;-6.314;2023-05-22T00:31:19;102103.44;;;14.05;100.00
29935;BME280;19905;53.370;-6.314;2023-05-22T00:33:50;102106.09;;;14.05;100.00
29935;BME280;19905;53.370;-6.314;2023-05-22T00:36:18;102111.09;;;13.96;100.00
29935;BME280;19905;53.370;-6.314;2023-05-22T00:38:47;102106.09;;;14.05;100.00
29935;BME280;19905;53.370;-6.314;2023-05-22T00:41:15;102097.94;;;14.08;100.00
29935;BME280;19905;53.370;-6.314;2023-05-22T00:43:44;102104.50;;;14.15;100.00
29935;BME280;19905;53.370;-6.314;2023-05-22T00:46:13;102100.47;;;14.09;100.00
29935;BME280;19905;53.370;-6.314;2023-05-22T00:48:47;102103.97;;;14.10;100.00
29935;BME280;19905;53.370;-6.314;2023-05-22T00:51:19;102103.97;;;14.10;100.00
29935;BME280;19905;53.370;-6.314;2023-05-22T00:53:49;102098.97;;;14.05;100.00
29935;BME280;19905;53.370;-6.314;2023-05-22T00:56:19;102111.31;;;14.06;100.00
29935;BME280;19905;53.370;-6.314;2023-05-22T00:58:49;102106.63;;;14.10;100.00
29935;BME280;19905;53.370;-6.314;2023-05-22T01:01:18;102098.78;;;14.08;100.00
29935;BME280;19905;53.370;-6.314;2023-05-22T01:03:46;102104.22;;;14.07;100.00
29935;BME280;19905;53.370;-6.314;2023-05-22T01:06:17;102095.16;;;14.09;100.00
29935;BME280;19905;53.370;-6.314;2023-05-22T01:08:47;102102.81;;;14.01;100.00
29935;BME280;19905;53.370;-6.314;2023-05-22T01:11:20;102099.22;;;14.02;100.00
29935;BME280;19905;53.370;-6.314;2023-05-22T01:13:56;102095.16;;;14.09;100.00
29935;BME280;19905;53.370;-6.314;2023-05-22T01:16:34;102101.00;;;14.14;100.00
29935;BME280;19905;53.370;-6.314;2023-05-22T01:19:15;102111.44;;;14.17;100.00
29935;BME280;19905;53.370;-6.314;2023-05-22T01:22:01;102101.88;;;14.02;100.00
29935;BME280;19905;53.370;-6.314;2023-05-22T01:24:59;102100.06;;;14.03;100.00
29935;BME280;19905;53.370;-6.314;2023-05-22T01:28:00;102104.22;;;14.07;100.00
29935;BME280;19905;53.370;-6.314;2023-05-22T01:30:49;102108.97;;;14.02;100.00
29935;BME280;19905;53.370;-6.314;2023-05-22T01:33:21;102102.91;;;13.99;100.00
29935;BME280;19905;53.370;-6.314;2023-05-22T01:35:53;102101.09;;;14.00;100.00
29935;BME280;19905;53.370;-6.314;2023-05-22T01:38:25;102102.28;;;13.96;100.00
29935;BME280;19905;53.370;-6.314;2023-05-22T01:40:54;102113.53;;;13.87;100.00
29935;BME280;19905;53.370;-6.314;2023-05-22T01:43:23;102108.44;;;13.84;100.00
29935;BME280;19905;53.370;-6.314;2023-05-22T01:45:53;102111.91;;;13.71;100.00
29935;BME280;19905;53.370;-6.314;2023-05-22T01:48:22;102115.63;;;13.69;100.00
29935;BME280;19905;53.370;-6.314;2023-05-22T01:50:51;102108.59;;;13.68;100.00
29935;BME280;19905;53.370;-6.314;2023-05-22T01:53:29;102114.56;;;13.71;100.00
29935;BME280;19905;53.370;-6.314;2023-05-22T01:56:04;102108.50;;;13.69;100.00
29935;BME280;19905;53.370;-6.314;2023-05-22T01:58:38;102115.63;;;13.69;100.00
29935;BME280;19905;53.370;-6.314;2023-05-22T02:01:13;102108.06;;;13.63;100.00
29935;BME280;19905;53.370;-6.314;2023-05-22T02:03:44;102099.25;;;13.62;100.00
29935;BME280;19905;53.370;-6.314;2023-05-22T02:06:14;102107.22;;;13.62;100.00
29935;BME280;19905;53.370;-6.314;2023-05-22T02:08:43;102106.91;;;13.67;100.00
29935;BME280;19905;53.370;-6.314;2023-05-22T02:11:12;102097.44;;;13.63;100.00
29935;BME280;19905;53.370;-6.314;2023-05-22T02:13:42;102084.97;;;13.51;100.00
29935;BME280;19905;53.370;-6.314;2023-05-22T02:16:13;102078.06;;;13.35;100.00
29935;BME280;19905;53.370;-6.314;2023-05-22T02:18:41;102078.59;;;13.40;100.00
29935;BME280;19905;53.370;-6.314;2023-05-22T02:21:11;102082.56;;;13.47;100.00
29935;BME280;19905;53.370;-6.314;2023-05-22T02:23:40;102071.69;;;13.38;100.00
29935;BME280;19905;53.370;-6.314;2023-05-22T02:26:08;102079.34;;;13.42;100.00
29935;BME280;19905;53.370;-6.314;2023-05-22T02:28:37;102087.88;;;13.47;100.00
29935;BME280;19905;53.370;-6.314;2023-05-22T02:31:08;102089.09;;;13.42;100.00
29935;BME280;19905;53.370;-6.314;2023-05-22T02:33:39;102086.75;;;13.37;100.00
29935;BME280;19905;53.370;-6.314;2023-05-22T02:36:08;102095.97;;;13.32;100.00
29935;BME280;19905;53.370;-6.314;2023-05-22T02:38:40;102098.94;;;13.27;100.00
29935;BME280;19905;53.370;-6.314;2023-05-22T02:41:08;102103.31;;;13.14;100.00
29935;BME280;19905;53.370;-6.314;2023-05-22T02:43:37;102094.59;;;13.12;100.00
29935;BME280;19905;53.370;-6.314;2023-05-22T02:46:06;102097.25;;;13.12;100.00
29935;BME280;19905;53.370;-6.314;2023-05-22T02:48:34;102101.78;;;13.10;100.00
29935;BME280;19905;53.370;-6.314;2023-05-22T02:51:05;102099.91;;;13.12;100.00
29935;BME280;19905;53.370;-6.314;2023-05-22T02:53:33;102103.72;;;13.08;100.00
29935;BME280;19905;53.370;-6.314;2023-05-22T02:56:06;102104.56;;;13.08;100.00
29935;BME280;19905;53.370;-6.314;2023-05-22T02:58:36;102106.19;;;13.11;100.00
29935;BME280;19905;53.370;-6.314;2023-05-22T03:01:05;102113.56;;;13.06;100.00
29935;BME280;19905;53.370;-6.314;2023-05-22T03:03:35;102109.41;;;13.02;100.00
29935;BME280;19905;53.370;-6.314;2023-05-22T03:06:06;102111.47;;;13.11;100.00
29935;BME280;19905;53.370;-6.314;2023-05-22T03:08:35;102110.34;;;13.01;100.00
29935;BME280;19905;53.370;-6.314;2023-05-22T03:11:07;102121.19;;;12.83;100.00
29935;BME280;19905;53.370;-6.314;2023-05-22T03:13:36;102118.63;;;12.82;100.00
29935;BME280;19905;53.370;-6.314;2023-05-22T03:16:05;102121.00;;;12.72;100.00
29935;BME280;19905;53.370;-6.314;2023-05-22T03:18:34;102117.81;;;12.67;100.00
29935;BME280;19905;53.370;-6.314;2023-05-22T03:21:05;102121.69;;;12.61;100.00
29935;BME280;19905;53.370;-6.314;2023-05-22T03:23:35;102122.34;;;12.65;100.00
29935;BME280;19905;53.370;-6.314;2023-05-22T03:26:03;102118.56;;;12.55;100.00
29935;BME280;19905;53.370;-6.314;2023-05-22T03:28:32;102121.03;;;12.58;100.00
29935;BME280;19905;53.370;-6.314;2023-05-22T03:31:00;102120.06;;;12.59;100.00
29935;BME280;19905;53.370;-6.314;2023-05-22T03:33:29;102112.22;;;12.57;100.00
29935;BME280;19905;53.370;-6.314;2023-05-22T03:35:58;102120.28;;;12.56;100.00
29935;BME280;19905;53.370;-6.314;2023-05-22T03:38:29;102127.75;;;12.49;100.00
29935;BME280;19905;53.370;-6.314;2023-05-22T03:40:58;102132.19;;;12.34;100.00
29935;BME280;19905;53.370;-6.314;2023-05-22T03:43:26;102135.53;;;12.38;100.00
29935;BME280;19905;53.370;-6.314;2023-05-22T03:45:55;102131.63;;;12.29;100.00
29935;BME280;19905;53.370;-6.314;2023-05-22T03:48:25;102134.06;;;12.18;100.00
29935;BME280;19905;53.370;-6.314;2023-05-22T03:50:54;102139.28;;;12.19;100.00
29935;BME280;19905;53.370;-6.314;2023-05-22T03:53:22;102127.16;;;12.01;100.00
29935;BME280;19905;53.370;-6.314;2023-05-22T03:55:52;102133.69;;;12.10;100.00
29935;BME280;19905;53.370;-6.314;2023-05-22T03:58:24;102133.22;;;12.17;100.00
29935;BME280;19905;53.370;-6.314;2023-05-22T04:00:53;102130.00;;;12.27;100.00
29935;BME280;19905;53.370;-6.314;2023-05-22T04:03:24;102136.44;;;12.23;100.00
29935;BME280;19905;53.370;-6.314;2023-05-22T04:05:53;102132.91;;;12.08;100.00
29935;BME280;19905;53.370;-6.314;2023-05-22T04:08:22;102133.97;;;12.05;100.00
29935;BME280;19905;53.370;-6.314;2023-05-22T04:10:53;102140.47;;;12.00;100.00
29935;BME280;19905;53.370;-6.314;2023-05-22T04:13:22;102136.22;;;11.97;100.00
29935;BME280;19905;53.370;-6.314;2023-05-22T04:15:50;102136.66;;;11.89;100.00
29935;BME280;19905;53.370;-6.314;2023-05-22T04:18:19;102143.59;;;11.92;100.00
29935;BME280;19905;53.370;-6.314;2023-05-22T04:20:48;102148.19;;;11.88;100.00
29935;BME280;19905;53.370;-6.314;2023-05-22T04:23:18;102144.59;;;11.89;100.00
29935;BME280;19905;53.370;-6.314;2023-05-22T04:25:48;102145.44;;;11.90;100.00
29935;BME280;19905;53.370;-6.314;2023-05-22T04:28:18;102144.88;;;11.85;100.00
29935;BME280;19905;53.370;-6.314;2023-05-22T04:30:48;102145.38;;;11.91;100.00
29935;BME280;19905;53.370;-6.314;2023-05-22T04:33:17;102145.19;;;11.94;100.00
29935;BME280;19905;53.370;-6.314;2023-05-22T04:35:46;102155.78;;;11.94;100.00
29935;BME280;19905;53.370;-6.314;2023-05-22T04:38:14;102161.72;;;11.84;100.00
29935;BME280;19905;53.370;-6.314;2023-05-22T04:40:44;102161.63;;;11.69;100.00
29935;BME280;19905;53.370;-6.314;2023-05-22T04:43:13;102159.66;;;11.73;100.00
29935;BME280;19905;53.370;-6.314;2023-05-22T04:45:46;102156.13;;;11.73;100.00
29935;BME280;19905;53.370;-6.314;2023-05-22T04:48:14;102165.22;;;11.68;100.00
29935;BME280;19905;53.370;-6.314;2023-05-22T04:50:43;102175.03;;;11.66;100.00
29935;BME280;19905;53.370;-6.314;2023-05-22T04:53:12;102168.53;;;11.72;100.00
29935;BME280;19905;53.370;-6.314;2023-05-22T04:55:41;102177.09;;;11.61;100.00
29935;BME280;19905;53.370;-6.314;2023-05-22T04:58:09;102181.28;;;11.65;100.00
29935;BME280;19905;53.370;-6.314;2023-05-22T05:00:38;102184.53;;;11.55;100.00
29935;BME280;19905;53.370;-6.314;2023-05-22T05:03:09;102195.97;;;11.55;100.00
29935;BME280;19905;53.370;-6.314;2023-05-22T05:05:37;102199.63;;;11.53;100.00
29935;BME280;19905;53.370;-6.314;2023-05-22T05:08:06;102202.03;;;11.57;100.00
29935;BME280;19905;53.370;-6.314;2023-05-22T05:10:34;102196.38;;;11.63;100.00
29935;BME280;19905;53.370;-6.314;2023-05-22T05:13:03;102202.03;;;11.57;100.00
29935;BME280;19905;53.370;-6.314;2023-05-22T05:15:32;102204.66;;;11.57;100.00
29935;BME280;19905;53.370;-6.314;2023-05-22T05:18:00;102203.66;;;11.60;100.00
29935;BME280;19905;53.370;-6.314;2023-05-22T05:20:30;102203.56;;;11.61;100.00
29935;BME280;19905;53.370;-6.314;2023-05-22T05:22:59;102205.69;;;11.70;100.00
29935;BME280;19905;53.370;-6.314;2023-05-22T05:25:28;102213.19;;;11.78;100.00
29935;BME280;19905;53.370;-6.314;2023-05-22T05:27:56;102220.72;;;11.70;100.00
29935;BME280;19905;53.370;-6.314;2023-05-22T05:30:25;102222.09;;;11.61;100.00
29935;BME280;19905;53.370;-6.314;2023-05-22T05:32:55;102226.78;;;11.56;100.00
29935;BME280;19905;53.370;-6.314;2023-05-22T05:35:24;102227.91;;;11.52;100.00
29935;BME280;19905;53.370;-6.314;2023-05-22T05:37:54;102223.63;;;11.50;100.00
29935;BME280;19905;53.370;-6.314;2023-05-22T05:40:23;102220.38;;;11.44;100.00
29935;BME280;19905;53.370;-6.314;2023-05-22T05:42:51;102223.28;;;11.56;100.00
29935;BME280;19905;53.370;-6.314;2023-05-22T05:45:20;102222.19;;;11.60;100.00
29935;BME280;19905;53.370;-6.314;2023-05-22T05:47:48;102220.88;;;11.67;100.00
29935;BME280;19905;53.370;-6.314;2023-05-22T05:50:17;102220.06;;;11.82;100.00
29935;BME280;19905;53.370;-6.314;2023-05-22T05:52:46;102216.75;;;11.77;100.00
29935;BME280;19905;53.370;-6.314;2023-05-22T05:55:16;102218.66;;;11.75;100.00
29935;BME280;19905;53.370;-6.314;2023-05-22T05:57:45;102218.25;;;11.83;100.00
29935;BME280;19905;53.370;-6.314;2023-05-22T06:00:14;102213.88;;;11.98;100.00
29935;BME280;19905;53.370;-6.314;2023-05-22T06:02:43;102212.34;;;11.93;100.00
29935;BME280;19905;53.370;-6.314;2023-05-22T06:05:14;102208.88;;;12.07;100.00
29935;BME280;19905;53.370;-6.314;2023-05-22T06:07:45;102215.25;;;11.89;100.00
29935;BME280;19905;53.370;-6.314;2023-05-22T06:10:15;102217.78;;;11.90;100.00
29935;BME280;19905;53.370;-6.314;2023-05-22T06:12:44;102231.81;;;11.92;100.00
29935;BME280;19905;53.370;-6.314;2023-05-22T06:15:12;102229.75;;;11.98;100.00
29935;BME280;19905;53.370;-6.314;2023-05-22T06:17:41;102234.19;;;11.97;100.00
29935;BME280;19905;53.370;-6.314;2023-05-22T06:20:10;102244.19;;;11.92;100.00
29935;BME280;19905;53.370;-6.314;2023-05-22T06:22:40;102250.91;;;11.82;100.00
29935;BME280;19905;53.370;-6.314;2023-05-22T06:25:09;102243.44;;;11.74;100.00
29935;BME280;19905;53.370;-6.314;2023-05-22T06:27:40;102240.00;;;11.72;100.00
29935;BME280;19905;53.370;-6.314;2023-05-22T06:30:09;102235.13;;;11.80;100.00
29935;BME280;19905;53.370;-6.314;2023-05-22T06:32:44;102231.81;;;11.92;100.00
29935;BME280;19905;53.370;-6.314;2023-05-22T06:35:12;102246.06;;;11.74;100.00
29935;BME280;19905;53.370;-6.314;2023-05-22T06:37:41;102252.91;;;11.78;100.00
29935;BME280;19905;53.370;-6.314;2023-05-22T06:40:10;102236.84;;;11.65;100.00
29935;BME280;19905;53.370;-6.314;2023-05-22T06:42:42;102244.13;;;11.78;100.00
29935;BME280;19905;53.370;-6.314;2023-05-22T06:45:10;102234.47;;;11.92;100.00
29935;BME280;19905;53.370;-6.314;2023-05-22T06:47:39;102253.31;;;11.86;100.00
29935;BME280;19905;53.370;-6.314;2023-05-22T06:50:08;102248.25;;;11.82;100.00
29935;BME280;19905;53.370;-6.314;2023-05-22T06:52:38;102242.81;;;12.01;100.00
29935;BME280;19905;53.370;-6.314;2023-05-22T06:55:07;102241.72;;;11.89;100.00
29935;BME280;19905;53.370;-6.314;2023-05-22T06:57:36;102227.19;;;11.80;100.00
29935;BME280;19905;53.370;-6.314;2023-05-22T07:00:08;102232.75;;;11.76;100.00
29935;BME280;19905;53.370;-6.314;2023-05-22T07:02:39;102250.50;;;11.74;100.00
29935;BME280;19905;53.370;-6.314;2023-05-22T07:05:08;102243.50;;;11.73;100.00
29935;BME280;19905;53.370;-6.314;2023-05-22T07:07:37;102247.19;;;11.86;100.00
29935;BME280;19905;53.370;-6.314;2023-05-22T07:10:06;102252.22;;;11.90;100.00
29935;BME280;19905;53.370;-6.314;2023-05-22T07:12:35;102251.81;;;11.82;100.00
29935;BME280;19905;53.370;-6.314;2023-05-22T07:15:05;102258.78;;;11.99;100.00
29935;BME280;19905;53.370;-6.314;2023-05-22T07:17:39;102248.75;;;12.20;100.00
29935;BME280;19905;53.370;-6.314;2023-05-22T07:20:09;102246.78;;;12.24;100.00
29935;BME280;19905;53.370;-6.314;2023-05-22T07:22:38;102250.34;;;12.23;100.00
29935;BME280;19905;53.370;-6.314;2023-05-22T07:25:07;102257.81;;;12.16;100.00
29935;BME280;19905;53.370;-6.314;2023-05-22T07:27:36;102260.22;;;12.05;100.00
29935;BME280;19905;53.370;-6.314;2023-05-22T07:30:07;102256.75;;;12.18;100.00
29935;BME280;19905;53.370;-6.314;2023-05-22T07:32:35;102264.94;;;12.00;100.00
29935;BME280;19905;53.370;-6.314;2023-05-22T07:35:07;102258.94;;;12.12;100.00
29935;BME280;19905;53.370;-6.314;2023-05-22T07:37:38;102266.28;;;12.07;100.00
29935;BME280;19905;53.370;-6.314;2023-05-22T07:40:08;102258.84;;;12.13;100.00
29935;BME280;19905;53.370;-6.314;2023-05-22T07:42:40;102267.50;;;12.01;100.00
29935;BME280;19905;53.370;-6.314;2023-05-22T07:46:12;102259.88;;;12.11;100.00
29935;BME280;19905;53.370;-6.314;2023-05-22T07:48:41;102263.53;;;12.24;100.00
29935;BME280;19905;53.370;-6.314;2023-05-22T07:51:12;102266.56;;;12.32;100.00
29935;BME280;19905;53.370;-6.314;2023-05-22T07:53:41;102266.38;;;12.35;100.00
29935;BME280;19905;53.370;-6.314;2023-05-22T07:56:10;102264.81;;;12.47;100.00
29935;BME280;19905;53.370;-6.314;2023-05-22T07:58:39;102272.38;;;12.53;100.00
29935;BME280;19905;53.370;-6.314;2023-05-22T08:01:08;102275.84;;;12.69;100.00
29935;BME280;19905;53.370;-6.314;2023-05-22T08:03:37;102282.00;;;12.70;100.00
29935;BME280;19905;53.370;-6.314;2023-05-22T08:06:06;102285.94;;;12.63;100.00
29935;BME280;19905;53.370;-6.314;2023-05-22T08:08:36;102283.19;;;12.64;100.00
29935;BME280;19905;53.370;-6.314;2023-05-22T08:11:04;102280.75;;;12.76;100.00
29935;BME280;19905;53.370;-6.314;2023-05-22T08:13:33;102277.25;;;12.75;100.00
29935;BME280;19905;53.370;-6.314;2023-05-22T08:16:05;102278.59;;;12.82;100.00
29935;BME280;19905;53.370;-6.314;2023-05-22T08:18:34;102282.75;;;12.86;100.00
29935;BME280;19905;53.370;-6.314;2023-05-22T08:21:03;102285.78;;;12.80;100.00
29935;BME280;19905;53.370;-6.314;2023-05-22T08:23:31;102274.97;;;12.69;100.00
29935;BME280;19905;53.370;-6.314;2023-05-22T08:26:04;102282.84;;;12.85;100.00
29935;BME280;19905;53.370;-6.314;2023-05-22T08:28:34;102277.47;;;13.01;100.00
29935;BME280;19905;53.370;-6.314;2023-05-22T08:31:07;102278.22;;;13.03;100.00
29935;BME280;19905;53.370;-6.314;2023-05-22T08:33:36;102277.09;;;13.21;100.00
29935;BME280;19905;53.370;-6.314;2023-05-22T08:36:05;102282.53;;;13.34;100.00
29935;BME280;19905;53.370;-6.314;2023-05-22T08:38:34;102288.84;;;13.31;100.00
29935;BME280;19905;53.370;-6.314;2023-05-22T08:41:05;102286.94;;;13.19;100.00
29935;BME280;19905;53.370;-6.314;2023-05-22T08:43:34;102281.84;;;13.02;100.00
29935;BME280;19905;53.370;-6.314;2023-05-22T08:46:04;102279.34;;;13.13;100.00
29935;BME280;19905;53.370;-6.314;2023-05-22T08:48:36;102278.25;;;13.31;100.00
29935;BME280;19905;53.370;-6.314;2023-05-22T08:51:07;102273.56;;;13.49;100.00
29935;BME280;19905;53.370;-6.314;2023-05-22T08:53:36;102278.63;;;13.39;100.00
29935;BME280;19905;53.370;-6.314;2023-05-22T08:56:07;102278.59;;;13.54;100.00
29935;BME280;19905;53.370;-6.314;2023-05-22T08:58:37;102277.25;;;13.61;100.00
29935;BME280;19905;53.370;-6.314;2023-05-22T09:01:05;102288.25;;;13.55;100.00
29935;BME280;19905;53.370;-6.314;2023-05-22T09:03:35;102271.94;;;13.61;100.00
29935;BME280;19905;53.370;-6.314;2023-05-22T09:06:04;102277.78;;;13.39;100.00
29935;BME280;19905;53.370;-6.314;2023-05-22T09:08:37;102272.94;;;13.31;100.00
29935;BME280;19905;53.370;-6.314;2023-05-22T09:11:07;102272.03;;;13.59;100.00
29935;BME280;19905;53.370;-6.314;2023-05-22T09:13:38;102287.00;;;13.60;100.00
29935;BME280;19905;53.370;-6.314;2023-05-22T09:16:09;102285.38;;;13.72;100.00
29935;BME280;19905;53.370;-6.314;2023-05-22T09:18:39;102280.81;;;14.01;100.00
29935;BME280;19905;53.370;-6.314;2023-05-22T09:21:09;102278.09;;;14.15;100.00
29935;BME280;19905;53.370;-6.314;2023-05-22T09:23:58;102275.88;;;14.49;100.00
29935;BME280;19905;53.370;-6.314;2023-05-22T09:26:29;102268.38;;;14.41;100.00
29935;BME280;19905;53.370;-6.314;2023-05-22T09:29:00;102261.03;;;14.32;100.00
29935;BME280;19905;53.370;-6.314;2023-05-22T09:31:29;102265.84;;;14.40;100.00
29935;BME280;19905;53.370;-6.314;2023-05-22T09:33:58;102270.59;;;14.35;100.00
29935;BME280;19905;53.370;-6.314;2023-05-22T09:36:30;102271.22;;;14.26;100.00
29935;BME280;19905;53.370;-6.314;2023-05-22T09:39:01;102263.38;;;14.37;100.00
29935;BME280;19905;53.370;-6.314;2023-05-22T09:41:34;102260.81;;;14.35;100.00
29935;BME280;19905;53.370;-6.314;2023-05-22T09:44:11;102277.91;;;14.18;100.00
29935;BME280;19905;53.370;-6.314;2023-05-22T09:46:44;102262.16;;;14.15;100.00
29935;BME280;19905;53.370;-6.314;2023-05-22T09:49:14;102265.91;;;14.26;100.00
29935;BME280;19905;53.370;-6.314;2023-05-22T09:51:44;102266.47;;;14.43;100.00
29935;BME280;19905;53.370;-6.314;2023-05-22T09:54:15;102258.22;;;14.99;100.00
29935;BME280;19905;53.370;-6.314;2023-05-22T09:56:48;102258.09;;;15.00;100.00
29935;BME280;19905;53.370;-6.314;2023-05-22T09:59:20;102255.03;;;14.68;100.00
29935;BME280;19905;53.370;-6.314;2023-05-22T10:01:49;102254.50;;;14.51;100.00
29935;BME280;19905;53.370;-6.314;2023-05-22T10:04:21;102260.16;;;14.32;100.00
29935;BME280;19905;53.370;-6.314;2023-05-22T10:06:52;102256.41;;;14.09;100.00
29935;BME280;19905;53.370;-6.314;2023-05-22T10:09:23;102256.81;;;14.03;100.00
29935;BME280;19905;53.370;-6.314;2023-05-22T10:12:01;102253.44;;;14.79;100.00
29935;BME280;19905;53.370;-6.314;2023-05-22T10:14:33;102269.59;;;14.88;100.00
29935;BME280;19905;53.370;-6.314;2023-05-22T10:17:03;102261.25;;;15.31;100.00
29935;BME280;19905;53.370;-6.314;2023-05-22T10:19:34;102267.59;;;15.91;100.00
29935;BME280;19905;53.370;-6.314;2023-05-22T10:22:08;102256.84;;;15.80;100.00
29935;BME280;19905;53.370;-6.314;2023-05-22T10:24:41;102263.06;;;16.04;100.00
29935;BME280;19905;53.370;-6.314;2023-05-22T10:27:12;102274.63;;;15.92;100.00
29935;BME280;19905;53.370;-6.314;2023-05-22T10:29:49;102275.34;;;15.57;100.00
29935;BME280;19905;53.370;-6.314;2023-05-22T10:32:26;102277.50;;;15.65;100.00
29935;BME280;19905;53.370;-6.314;2023-05-22T10:35:07;102280.00;;;15.30;100.00
29935;BME280;19905;53.370;-6.314;2023-05-22T10:37:48;102273.00;;;15.65;100.00
29935;BME280;19905;53.370;-6.314;2023-05-22T10:40:23;102269.63;;;15.87;100.00
29935;BME280;19905;53.370;-6.314;2023-05-22T10:43:00;102264.28;;;16.11;100.00
29935;BME280;19905;53.370;-6.314;2023-05-22T10:45:31;102266.03;;;16.23;100.00
29935;BME280;19905;53.370;-6.314;2023-05-22T10:48:06;102268.72;;;15.99;100.00
29935;BME280;19905;53.370;-6.314;2023-05-22T10:50:36;102259.13;;;15.73;100.00
29935;BME280;19905;53.370;-6.314;2023-05-22T10:53:21;102271.66;;;15.47;100.00
29935;BME280;19905;53.370;-6.314;2023-05-22T10:55:51;102271.50;;;15.61;100.00
29935;BME280;19905;53.370;-6.314;2023-05-22T10:58:33;102274.25;;;16.20;100.00
29935;BME280;19905;53.370;-6.314;2023-05-22T11:01:11;102263.97;;;16.27;100.00
29935;BME280;19905;53.370;-6.314;2023-05-22T11:03:54;102272.41;;;15.86;100.00
29935;BME280;19905;53.370;-6.314;2023-05-22T11:06:35;102272.75;;;16.05;100.00
29935;BME280;19905;53.370;-6.314;2023-05-22T11:12:16;102259.91;;;16.45;100.00
29935;BME280;19905;53.370;-6.314;2023-05-22T11:14:54;102252.78;;;16.57;100.00
29935;BME280;19905;53.370;-6.314;2023-05-22T11:17:25;102250.72;;;16.49;100.00
29935;BME280;19905;53.370;-6.314;2023-05-22T11:19:59;102247.22;;;16.60;100.00
29935;BME280;19905;53.370;-6.314;2023-05-22T11:22:33;102244.97;;;17.00;100.00
29935;BME280;19905;53.370;-6.314;2023-05-22T11:25:05;102239.13;;;17.18;100.00
29935;BME280;19905;53.370;-6.314;2023-05-22T11:27:35;102236.97;;;17.00;100.00
29935;BME280;19905;53.370;-6.314;2023-05-22T11:30:08;102243.25;;;16.99;100.00
29935;BME280;19905;53.370;-6.314;2023-05-22T11:32:39;102252.69;;;16.70;100.00
29935;BME280;19905;53.370;-6.314;2023-05-22T11:35:13;102240.69;;;16.75;100.00
29935;BME280;19905;53.370;-6.314;2023-05-22T11:40:59;102242.75;;;17.17;100.00
29935;BME280;19905;53.370;-6.314;2023-05-22T11:43:28;102241.94;;;17.27;100.00
29935;BME280;19905;53.370;-6.314;2023-05-22T11:46:05;102251.03;;;17.02;100.00
29935;BME280;19905;53.370;-6.314;2023-05-22T11:48:34;102244.59;;;17.27;100.00
29935;BME280;19905;53.370;-6.314;2023-05-22T11:51:03;102253.09;;;17.10;100.00
29935;BME280;19905;53.370;-6.314;2023-05-22T11:53:33;102251.56;;;17.62;100.00
29935;BME280;19905;53.370;-6.314;2023-05-22T11:56:03;102248.16;;;17.60;100.00
29935;BME280;19905;53.370;-6.314;2023-05-22T11:58:35;102238.72;;;17.45;100.00
29935;BME280;19905;53.370;-6.314;2023-05-22T12:01:05;102245.94;;;17.88;100.00
29935;BME280;19905;53.370;-6.314;2023-05-22T12:03:34;102255.84;;;17.31;100.00
29935;BME280;19905;53.370;-6.314;2023-05-22T12:06:03;102244.47;;;17.29;100.00
29935;BME280;19905;53.370;-6.314;2023-05-22T12:08:32;102232.47;;;17.67;100.00
29935;BME280;19905;53.370;-6.314;2023-05-22T12:11:03;102243.81;;;18.02;100.00
29935;BME280;19905;53.370;-6.314;2023-05-22T12:13:33;102233.13;;;18.44;100.00
29935;BME280;19905;53.370;-6.314;2023-05-22T12:16:15;102232.53;;;18.41;100.00
29935;BME280;19905;53.370;-6.314;2023-05-22T12:18:46;102241.38;;;19.14;100.00
29935;BME280;19905;53.370;-6.314;2023-05-22T12:21:17;102235.69;;;18.97;100.00
29935;BME280;19905;53.370;-6.314;2023-05-22T12:23:50;102237.06;;;18.92;100.00
29935;BME280;19905;53.370;-6.314;2023-05-22T12:26:19;102239.44;;;18.85;100.00
29935;BME280;19905;53.370;-6.314;2023-05-22T12:28:51;102232.53;;;18.62;100.00
29935;BME280;19905;53.370;-6.314;2023-05-22T12:31:21;102237.22;;;18.48;100.00
29935;BME280;19905;53.370;-6.314;2023-05-22T12:33:54;102236.38;;;18.69;100.00
29935;BME280;19905;53.370;-6.314;2023-05-22T12:36:32;102232.78;;;18.79;100.00
29935;BME280;19905;53.370;-6.314;2023-05-22T12:39:00;102232.13;;;19.37;100.00
29935;BME280;19905;53.370;-6.314;2023-05-22T12:41:30;102237.41;;;19.08;100.00
29935;BME280;19905;53.370;-6.314;2023-05-22T12:43:58;102240.34;;;19.05;100.00
29935;BME280;19905;53.370;-6.314;2023-05-22T12:46:28;102245.31;;;18.16;100.00
29935;BME280;19905;53.370;-6.314;2023-05-22T12:48:59;102240.16;;;18.24;100.00
29935;BME280;19905;53.370;-6.314;2023-05-22T12:51:30;102237.47;;;18.66;100.00
29935;BME280;19905;53.370;-6.314;2023-05-22T12:54:00;102232.25;;;18.86;100.00
29935;BME280;19905;53.370;-6.314;2023-05-22T12:56:30;102244.41;;;18.69;100.00